createdAt,value
2022-11-27T00:01:35.363Z,84.93
2022-11-27T00:04:03.862Z,81.77
2022-11-27T00:06:32.970Z,90.17
2022-11-27T00:09:02.565Z,82.15
2022-11-27T00:11:32.433Z,91.70
2022-11-27T00:14:00.878Z,90.80
2022-11-27T00:16:29.322Z,82.10
2022-11-27T00:18:57.747Z,87.65
2022-11-27T00:21:36.098Z,73.60
2022-11-27T00:26:38.174Z,68.05
2022-11-27T00:29:07.882Z,61.95
2022-11-27T00:31:37.957Z,48.92
2022-11-27T00:34:08.317Z,36.45
2022-11-27T00:36:36.704Z,37.70
2022-11-27T00:39:05.787Z,30.15
2022-11-27T00:44:01.029Z,40.15
2022-11-27T00:46:31.067Z,34.05
2022-11-27T00:49:00.761Z,47.50
2022-11-27T00:51:29.548Z,49.03
2022-11-27T00:53:57.906Z,48.30
2022-11-27T00:56:31.626Z,63.67
2022-11-27T00:58:59.545Z,57.50
2022-11-27T01:01:33.880Z,72.40
2022-11-27T01:04:03.912Z,67.20
2022-11-27T01:06:32.503Z,73.10
2022-11-27T01:09:00.255Z,63.42
2022-11-27T01:11:31.310Z,64.10
2022-11-27T01:14:13.632Z,75.95
2022-11-27T01:16:43.294Z,80.73
2022-11-27T01:19:14.313Z,86.05
2022-11-27T01:21:42.356Z,102.20
2022-11-27T01:24:12.733Z,94.73
2022-11-27T01:26:41.898Z,99.77
2022-11-27T01:29:10.514Z,82.83
2022-11-27T01:31:38.547Z,82.72
2022-11-27T01:34:13.887Z,72.15
2022-11-27T01:36:41.512Z,64.93
2022-11-27T01:39:16.367Z,63.80
2022-11-27T01:41:48.625Z,67.50
2022-11-27T01:44:25.732Z,75.10
2022-11-27T01:47:03.942Z,61.97
2022-11-27T01:49:43.076Z,58.50
2022-11-27T01:52:35.012Z,66.45
2022-11-27T01:55:28.027Z,55.57
2022-11-27T01:58:04.052Z,53.00
2022-11-27T02:00:32.237Z,61.10
2022-11-27T02:03:00.635Z,55.73
2022-11-27T02:05:29.678Z,50.22
2022-11-27T02:08:00.248Z,54.75
2022-11-27T02:11:03.359Z,50.30
2022-11-27T02:13:48.939Z,52.93
2022-11-27T02:16:58.930Z,45.50
2022-11-27T02:19:51.483Z,48.77
2022-11-27T02:22:56.958Z,49.80
2022-11-27T02:25:51.318Z,61.07
2022-11-27T02:28:22.397Z,66.67
2022-11-27T02:31:14.360Z,77.47
2022-11-27T02:33:56.239Z,74.70
2022-11-27T02:36:30.242Z,75.47
2022-11-27T02:39:11.176Z,77.50
2022-11-27T02:41:54.713Z,72.20
2022-11-27T02:44:24.412Z,70.60
2022-11-27T02:49:21.904Z,73.10
2022-11-27T02:51:56.241Z,63.87
2022-11-27T02:54:30.590Z,66.00
2022-11-27T02:57:03.889Z,61.47
2022-11-27T02:59:34.544Z,63.73
2022-11-27T03:02:08.640Z,66.50
2022-11-27T03:04:47.877Z,67.57
2022-11-27T03:07:23.256Z,64.30
2022-11-27T03:09:57.679Z,62.10
2022-11-27T03:12:25.653Z,64.07
2022-11-27T03:14:53.283Z,63.90
2022-11-27T03:17:37.082Z,65.33
2022-11-27T03:20:48.235Z,51.03
2022-11-27T03:23:15.853Z,59.57
2022-11-27T03:25:44.219Z,60.43
2022-11-27T03:28:14.143Z,61.60
2022-11-27T03:30:42.101Z,73.97
2022-11-27T03:33:11.097Z,65.77
2022-11-27T03:35:39.749Z,62.33
2022-11-27T03:38:07.531Z,63.43
2022-11-27T03:41:09.975Z,55.60
2022-11-27T03:43:46.786Z,68.43
2022-11-27T03:46:28.982Z,71.87
2022-11-27T03:49:12.274Z,68.03
2022-11-27T03:52:05.554Z,66.27
2022-11-27T03:54:43.470Z,66.93
2022-11-27T03:57:36.258Z,62.90
2022-11-27T04:00:08.579Z,61.13
2022-11-27T04:02:51.949Z,46.93
2022-11-27T04:05:20.986Z,48.47
2022-11-27T04:10:16.540Z,45.13
2022-11-27T04:12:44.330Z,37.23
2022-11-27T04:15:13.217Z,39.40
2022-11-27T04:17:41.069Z,37.83
2022-11-27T04:20:10.461Z,39.27
2022-11-27T04:22:41.436Z,40.30
2022-11-27T04:25:10.475Z,45.63
2022-11-27T04:27:39.139Z,44.90
2022-11-27T04:30:11.189Z,49.77
2022-11-27T04:32:39.429Z,109.97
2022-11-27T04:35:07.335Z,93.10
2022-11-27T04:37:35.011Z,122.43
2022-11-27T04:40:03.655Z,138.07
2022-11-27T04:42:32.182Z,104.68
2022-11-27T04:44:59.795Z,85.63
2022-11-27T04:47:28.520Z,85.32
2022-11-27T04:49:56.228Z,74.27
2022-11-27T04:52:23.956Z,74.87
2022-11-27T04:54:55.483Z,80.70
2022-11-27T04:57:28.321Z,87.23
2022-11-27T04:59:56.407Z,76.22
2022-11-27T05:02:24.394Z,73.13
2022-11-27T05:05:00.736Z,79.30
2022-11-27T07:10:01.986Z,77.70
2022-11-27T07:12:33.706Z,76.97
2022-11-27T07:15:04.201Z,67.03
2022-11-27T07:17:32.661Z,55.53
2022-11-27T07:20:00.421Z,66.40
2022-11-27T07:22:27.755Z,90.23
2022-11-27T07:24:55.854Z,71.30
2022-11-27T07:27:23.635Z,78.93
2022-11-27T07:29:51.180Z,61.87
2022-11-27T07:32:19.136Z,61.80
2022-11-27T07:34:48.024Z,65.03
2022-11-27T07:37:15.326Z,68.63
2022-11-27T07:40:01.538Z,66.90
2022-11-27T07:42:37.968Z,80.50
2022-11-27T07:45:10.638Z,88.97
2022-11-27T07:47:38.549Z,95.60
2022-11-27T07:50:08.580Z,90.43
2022-11-27T07:52:41.027Z,93.97
2022-11-27T07:55:09.799Z,103.60
2022-11-27T07:57:37.223Z,97.77
2022-11-27T08:00:05.904Z,98.73
2022-11-27T08:02:32.983Z,102.78
2022-11-27T08:05:00.760Z,98.23
2022-11-27T08:07:29.166Z,135.97
2022-11-27T08:10:00.276Z,147.60
2022-11-27T08:12:27.928Z,111.23
2022-11-27T08:14:55.288Z,110.70
2022-11-27T08:17:22.491Z,94.60
2022-11-27T08:19:50.164Z,98.07
2022-11-27T08:22:19.717Z,109.20
2022-11-27T08:24:48.272Z,103.77
2022-11-27T08:27:18.664Z,99.90
2022-11-27T08:29:46.077Z,102.97
2022-11-27T08:32:14.464Z,85.40
2022-11-27T08:34:43.111Z,88.72
2022-11-27T08:37:10.668Z,82.43
2022-11-27T08:39:38.035Z,85.60
2022-11-27T08:42:05.819Z,85.60
2022-11-27T08:44:33.168Z,85.67
2022-11-27T08:47:00.489Z,126.87
2022-11-27T08:49:28.319Z,82.13
2022-11-27T08:51:55.548Z,75.63
2022-11-27T08:54:22.947Z,93.77
2022-11-27T08:56:52.968Z,63.57
2022-11-27T08:59:20.381Z,53.67
2022-11-27T09:01:48.669Z,57.38
2022-11-27T09:04:16.353Z,54.23
2022-11-27T09:06:45.384Z,65.72
2022-11-27T09:09:13.037Z,49.17
2022-11-27T09:11:41.831Z,49.97
2022-11-27T09:14:09.856Z,47.03
2022-11-27T09:16:37.590Z,48.40
2022-11-27T09:19:05.783Z,45.23
2022-11-27T09:21:33.238Z,54.70
2022-11-27T09:24:02.194Z,63.00
2022-11-27T09:26:30.733Z,48.30
2022-11-27T09:28:59.042Z,42.57
2022-11-27T09:31:26.891Z,55.23
2022-11-27T09:33:54.842Z,47.90
2022-11-27T09:36:29.073Z,50.13
2022-11-27T09:38:59.417Z,51.63
2022-11-27T09:41:39.765Z,39.43
2022-11-27T09:44:25.350Z,35.93
2022-11-27T09:46:54.697Z,82.20
2022-11-27T09:52:28.316Z,104.35
2022-11-27T09:55:03.918Z,72.67
2022-11-27T09:57:35.455Z,13.80
2022-11-27T10:00:17.881Z,13.57
2022-11-27T10:02:48.814Z,10.80
2022-11-27T10:05:23.935Z,9.23
2022-11-27T10:08:18.808Z,7.57
2022-11-27T10:11:08.024Z,7.23
2022-11-27T10:13:51.808Z,7.13
2022-11-27T10:16:39.026Z,7.53
2022-11-27T10:19:32.393Z,6.77
2022-11-27T10:22:47.371Z,11.77
2022-11-27T10:25:21.562Z,9.83
2022-11-27T10:28:05.362Z,8.37
2022-11-27T10:30:40.397Z,7.37
2022-11-27T10:33:20.427Z,9.00
2022-11-27T10:35:49.561Z,12.30
2022-11-27T10:38:24.301Z,11.05
2022-11-27T10:41:47.472Z,12.07
2022-11-27T10:44:27.408Z,6.17
2022-11-27T10:47:01.830Z,8.55
2022-11-27T10:49:29.505Z,9.07
2022-11-27T10:51:57.229Z,7.40
2022-11-27T10:54:32.590Z,9.33
2022-11-27T10:57:26.862Z,36.60
2022-11-27T11:00:15.155Z,8.87
2022-11-27T11:02:42.951Z,8.50
2022-11-27T11:08:20.042Z,7.75
2022-11-27T11:10:59.262Z,7.43
2022-11-27T11:13:31.870Z,6.20
2022-11-27T11:16:21.921Z,6.97
2022-11-27T11:18:53.478Z,11.90
2022-11-27T11:21:30.450Z,12.82
2022-11-27T11:24:04.959Z,10.77
2022-11-27T11:26:44.604Z,20.53
2022-11-27T11:29:31.095Z,8.93
2022-11-27T11:32:14.929Z,8.70
2022-11-27T11:34:59.182Z,10.13
2022-11-27T11:37:33.717Z,8.53
2022-11-27T11:40:09.782Z,13.20
2022-11-27T11:42:52.962Z,11.70
2022-11-27T11:45:22.734Z,6.27
2022-11-27T11:50:44.396Z,13.87
2022-11-27T11:53:34.948Z,13.37
2022-11-27T11:56:14.792Z,11.67
2022-11-27T11:58:48.694Z,13.40
2022-11-27T12:01:27.517Z,8.50
2022-11-27T12:04:13.783Z,4.57
2022-11-27T12:07:08.952Z,5.23
2022-11-27T12:09:43.890Z,3.53
2022-11-27T12:12:29.728Z,3.37
2022-11-27T12:15:06.906Z,3.70
2022-11-27T12:17:59.076Z,7.33
2022-11-27T12:21:11.436Z,4.00
2022-11-27T12:23:41.691Z,2.17
2022-11-27T12:26:33.857Z,17.00
2022-11-27T12:29:27.598Z,6.13
2022-11-27T12:32:07.577Z,3.87
2022-11-27T12:34:46.768Z,4.53
2022-11-27T12:37:53.091Z,5.87
2022-11-27T12:40:57.694Z,17.57
2022-11-27T12:43:27.871Z,16.57
2022-11-27T12:46:10.147Z,10.57
2022-11-27T12:48:51.208Z,24.27
2022-11-27T12:51:29.451Z,5.37
2022-11-27T12:54:05.714Z,8.55
2022-11-27T12:56:42.867Z,7.20
2022-11-27T12:59:33.899Z,5.17
2022-11-27T13:02:23.915Z,9.13
2022-11-27T13:04:59.692Z,6.00
2022-11-27T13:08:08.876Z,10.00
2022-11-27T13:10:42.767Z,7.63
2022-11-27T13:13:24.958Z,8.10
2022-11-27T13:16:01.108Z,9.27
2022-11-27T13:18:41.843Z,13.70
2022-11-27T13:21:23.779Z,4.10
2022-11-27T13:23:55.848Z,6.10
2022-11-27T13:26:31.980Z,9.97
2022-11-27T13:29:03.994Z,17.07
2022-11-27T13:31:37.986Z,7.43
2022-11-27T13:34:10.395Z,3.40
2022-11-27T13:36:42.040Z,6.20
2022-11-27T13:39:29.109Z,6.43
2022-11-27T13:42:22.407Z,3.53
2022-11-27T13:44:59.919Z,3.63
2022-11-27T13:47:30.555Z,3.40
2022-11-27T13:50:04.395Z,5.43
2022-11-27T13:52:32.346Z,5.60
2022-11-27T13:55:03.027Z,6.73
2022-11-27T13:57:30.777Z,4.00
2022-11-27T14:00:13.920Z,4.30
2022-11-27T14:02:50.392Z,5.37
2022-11-27T14:05:21.238Z,8.43
2022-11-27T14:10:31.134Z,7.67
2022-11-27T14:13:05.527Z,6.37
2022-11-27T14:15:38.505Z,7.40
2022-11-27T14:18:18.846Z,8.53
2022-11-27T14:21:00.524Z,10.10
2022-11-27T14:23:48.403Z,6.43
2022-11-27T14:26:15.951Z,7.43
2022-11-27T14:28:48.647Z,9.47
2022-11-27T14:31:23.654Z,10.77
2022-11-27T14:36:38.882Z,19.73
2022-11-27T14:39:06.796Z,19.17
2022-11-27T14:41:34.257Z,15.73
2022-11-27T14:44:06.296Z,14.67
2022-11-27T14:46:36.964Z,17.13
2022-11-27T14:49:04.411Z,17.30
2022-11-27T14:51:35.187Z,7.67
2022-11-27T14:54:33.124Z,12.87
2022-11-27T14:57:00.791Z,7.37
2022-11-27T14:59:28.762Z,11.07
2022-11-27T15:02:11.644Z,6.33
2022-11-27T15:04:44.290Z,9.93
2022-11-27T15:07:23.645Z,5.90
2022-11-27T15:09:54.722Z,5.90
2022-11-27T15:12:30.903Z,11.23
2022-11-27T15:15:06.108Z,7.83
2022-11-27T15:17:37.313Z,12.50
2022-11-27T15:20:42.162Z,24.10
2022-11-27T15:23:36.678Z,43.37
2022-11-27T15:26:16.906Z,33.97
2022-11-27T15:28:55.400Z,36.93
2022-11-27T15:31:31.104Z,49.33
2022-11-27T15:34:13.983Z,73.73
2022-11-27T15:36:44.774Z,36.03
2022-11-27T15:39:32.124Z,40.70
2022-11-27T15:42:01.809Z,22.27
2022-11-27T15:44:32.209Z,16.50
2022-11-27T15:47:02.362Z,11.73
2022-11-27T15:49:30.142Z,11.77
2022-11-27T15:51:58.218Z,9.30
2022-11-27T15:54:26.543Z,9.45
2022-11-27T15:56:55.050Z,16.40
2022-11-27T15:59:22.691Z,29.57
2022-11-27T16:01:50.494Z,19.97
2022-11-27T16:04:18.273Z,14.57
2022-11-27T16:06:45.788Z,14.90
2022-11-27T16:09:13.243Z,39.77
2022-11-27T16:11:41.094Z,20.80
2022-11-27T16:14:08.412Z,16.13
2022-11-27T16:16:35.842Z,16.47
2022-11-27T16:19:06.523Z,11.93
2022-11-27T16:21:35.362Z,10.97
2022-11-27T16:24:09.715Z,10.88
2022-11-27T16:26:38.241Z,11.10
2022-11-27T16:29:07.755Z,10.30
2022-11-27T16:34:06.009Z,110.57
2022-11-27T16:36:33.984Z,115.47
2022-11-27T16:39:02.037Z,111.83
2022-11-27T16:41:29.824Z,106.83
2022-11-27T16:43:57.569Z,110.97
2022-11-27T16:46:28.045Z,104.27
2022-11-27T16:48:57.645Z,86.93
2022-11-27T16:53:56.142Z,98.90
2022-11-27T16:56:26.234Z,90.27
2022-11-27T16:58:58.081Z,136.60
2022-11-27T17:01:36.284Z,200.43
2022-11-27T17:04:07.278Z,242.00
2022-11-27T17:06:37.098Z,140.50
2022-11-27T17:09:06.958Z,105.93
2022-11-27T17:11:37.191Z,92.80
2022-11-27T17:14:07.687Z,75.53
2022-11-27T17:16:37.886Z,64.33
2022-11-27T17:19:05.421Z,63.93
2022-11-27T17:21:34.993Z,70.03
2022-11-27T17:24:14.536Z,80.40
2022-11-27T17:26:44.760Z,99.00
2022-11-27T17:29:14.384Z,101.15
2022-11-27T17:34:12.038Z,125.90
2022-11-27T17:36:42.413Z,118.27
2022-11-27T17:39:12.369Z,99.27
2022-11-27T17:41:41.127Z,95.77
2022-11-27T17:44:08.691Z,87.10
2022-11-27T17:46:37.150Z,129.10
2022-11-27T17:49:07.618Z,246.55
2022-11-27T17:51:36.853Z,339.80
2022-11-27T17:54:06.133Z,325.42
2022-11-27T17:56:35.027Z,234.43
2022-11-27T17:59:03.349Z,160.63
2022-11-27T18:01:31.694Z,157.98
2022-11-27T18:04:01.478Z,146.23
2022-11-27T18:06:30.025Z,203.70
2022-11-27T18:08:58.336Z,253.53
2022-11-27T18:11:28.720Z,230.60
2022-11-27T18:13:57.301Z,210.70
2022-11-27T18:16:30.979Z,195.90
2022-11-27T18:19:00.482Z,184.03
2022-11-27T18:21:31.366Z,160.93
2022-11-27T18:24:22.457Z,142.07
2022-11-27T18:29:38.379Z,104.13
2022-11-27T18:32:06.840Z,91.57
2022-11-27T18:34:36.977Z,99.80
2022-11-27T18:37:07.220Z,103.20
2022-11-27T18:39:36.083Z,102.43
2022-11-27T18:42:05.227Z,138.43
2022-11-27T18:44:38.371Z,170.13
2022-11-27T18:47:10.494Z,161.57
2022-11-27T18:49:39.024Z,186.00
2022-11-27T18:52:07.586Z,329.37
2022-11-27T18:54:37.429Z,364.83
2022-11-27T18:57:07.439Z,316.13
2022-11-27T18:59:35.135Z,261.30
2022-11-27T19:02:04.309Z,279.27
2022-11-27T19:04:34.550Z,263.53
2022-11-27T19:07:02.086Z,279.00
2022-11-27T19:09:29.678Z,302.30
2022-11-27T19:11:57.389Z,283.47
2022-11-27T19:14:24.846Z,275.83
2022-11-27T19:16:53.123Z,276.70
2022-11-27T19:22:10.702Z,227.57
2022-11-27T19:24:40.623Z,183.37
2022-11-27T19:27:09.881Z,134.37
2022-11-27T19:29:37.739Z,85.20
2022-11-27T19:32:06.337Z,64.62
2022-11-27T19:34:35.241Z,69.60
2022-11-27T19:37:02.868Z,73.43
2022-11-27T19:39:30.941Z,73.93
2022-11-27T19:41:58.859Z,91.03
2022-11-27T19:44:26.591Z,97.63
2022-11-27T19:46:55.124Z,115.70
2022-11-27T19:49:24.344Z,106.23
2022-11-27T19:51:55.969Z,98.60
2022-11-27T19:54:24.055Z,111.07
2022-11-27T19:56:51.664Z,128.03
2022-11-27T19:59:24.394Z,124.53
2022-11-27T20:01:53.484Z,129.53
2022-11-27T20:04:25.477Z,118.00
2022-11-27T20:06:53.441Z,133.70
2022-11-27T20:09:21.284Z,124.57
2022-11-27T20:11:48.720Z,85.87
2022-11-27T20:14:16.286Z,53.87
2022-11-27T20:16:44.120Z,45.60
2022-11-27T20:19:11.631Z,44.03
2022-11-27T20:21:40.356Z,40.77
2022-11-27T20:24:08.890Z,76.97
2022-11-27T20:26:41.200Z,40.10
2022-11-27T20:29:11.793Z,33.53
2022-11-27T20:31:41.344Z,28.30
2022-11-27T20:34:16.807Z,33.93
2022-11-27T20:36:44.278Z,38.20
2022-11-27T20:39:19.234Z,26.87
2022-11-27T20:41:49.834Z,18.73
2022-11-27T20:46:46.618Z,18.37
2022-11-27T20:49:14.645Z,25.50
2022-11-27T20:51:42.727Z,26.50
2022-11-27T20:54:11.937Z,16.80
2022-11-27T20:56:41.085Z,9.57
2022-11-27T21:01:37.182Z,18.40
2022-11-27T21:04:11.165Z,14.23
2022-11-27T21:06:43.774Z,13.70
2022-11-27T21:09:14.128Z,8.63
2022-11-27T21:11:43.182Z,11.73
2022-11-27T21:14:13.057Z,7.07
2022-11-27T21:16:43.756Z,15.50
2022-11-27T21:19:15.732Z,23.40
2022-11-27T21:21:43.287Z,23.20
2022-11-27T21:24:11.385Z,29.53
2022-11-27T21:26:40.461Z,27.17
2022-11-27T21:29:08.532Z,18.37
2022-11-27T21:31:37.890Z,23.85
2022-11-27T21:34:12.153Z,35.40
2022-11-27T21:36:39.739Z,28.07
2022-11-27T21:39:11.573Z,33.72
2022-11-27T21:41:39.130Z,31.27
2022-11-27T21:44:06.606Z,22.33
2022-11-27T21:46:35.145Z,22.40
2022-11-27T21:49:04.385Z,20.43
2022-11-27T21:51:31.897Z,24.50
2022-11-27T21:53:59.995Z,28.03
2022-11-27T21:56:29.823Z,30.50
2022-11-27T21:58:58.915Z,31.97
2022-11-27T22:01:26.990Z,46.93
2022-11-27T22:03:55.139Z,35.83
2022-11-27T22:06:24.980Z,36.23
2022-11-27T22:08:54.705Z,29.50
2022-11-27T22:11:30.466Z,27.27
2022-11-27T22:14:00.680Z,38.50
2022-11-27T22:16:30.565Z,30.93
2022-11-27T22:19:00.248Z,44.67
2022-11-27T22:21:30.506Z,67.77
2022-11-27T22:24:01.370Z,84.53
2022-11-27T22:26:29.686Z,79.00
2022-11-27T22:28:58.792Z,44.70
2022-11-27T22:31:33.243Z,42.13
2022-11-27T22:34:01.152Z,57.83
2022-11-27T22:36:30.528Z,61.63
2022-11-27T22:41:29.481Z,52.00
2022-11-27T22:44:00.451Z,74.20
2022-11-27T22:46:32.885Z,74.33
2022-11-27T22:49:02.463Z,46.00
2022-11-27T22:51:32.223Z,35.53
2022-11-27T22:54:01.510Z,47.40
2022-11-27T22:56:28.748Z,48.15
2022-11-27T22:59:17.553Z,35.77
2022-11-27T23:01:45.765Z,29.02
2022-11-27T23:04:13.567Z,25.20
2022-11-27T23:06:40.817Z,28.27
2022-11-27T23:09:08.221Z,35.60
2022-11-27T23:11:36.735Z,36.33
2022-11-27T23:14:05.225Z,29.20
2022-11-27T23:16:33.564Z,27.47
2022-11-27T23:19:01.327Z,29.60
2022-11-27T23:21:28.797Z,27.07
2022-11-27T23:23:56.742Z,32.53
2022-11-27T23:26:24.869Z,34.65
2022-11-27T23:28:53.854Z,36.73
2022-11-27T23:31:31.117Z,66.95
2022-11-27T23:34:02.130Z,67.50
2022-11-27T23:36:31.187Z,75.43
2022-11-27T23:39:04.278Z,76.97
2022-11-27T23:41:31.843Z,75.23
2022-11-27T23:43:59.650Z,73.50
2022-11-27T23:46:28.934Z,85.53
2022-11-27T23:48:57.868Z,81.20
2022-11-27T23:51:31.126Z,80.70
2022-11-27T23:54:00.096Z,62.00
2022-11-27T23:56:30.870Z,47.57
2022-11-27T23:58:59.426Z,61.67
